<?xml version="1.0" encoding="UTF-8" standalone="no" ?>
<gpx xmlns="http://www.topografix.com/GPX/1/1" xmlns:xsi="http://www.w3.org/2001/XMLSchema-instance" xsi:schemaLocation="http://www.topografix.com/GPX/1/1 http://www.topografix.com/GPX/1/1/gpx.xsd" version="1.1" creator="VisuGPX - https://www.visugpx.com">
  <metadata>
    <name>Venise-Pamir J65 - Ouzbékistan</name>
    <desc><![CDATA[Route en très très mauvais état, 
mais la beauté de Khiva fait oublier tout ça]]></desc>
  </metadata>
  <trk>
    <name><![CDATA[Venise-Pamir J65 - Ouzbékistan_1]]></name>
    <trkseg>
      <trkpt lat="42.12071" lon="60.08296">
        <ele>-263.4</ele>
        <time>2018-08-05T01:34:37.000Z</time>
      </trkpt>
      <trkpt lat="42.10924" lon="60.0714">
        <ele>95.1</ele>
        <time>2018-08-05T01:36:02.000Z</time>
      </trkpt>
      <trkpt lat="42.10831" lon="60.07277">
        <ele>82.7</ele>
        <time>2018-08-05T01:41:10.000Z</time>
      </trkpt>
      <trkpt lat="42.10625" lon="60.07502">
        <ele>79.5</ele>
        <time>2018-08-05T01:42:11.000Z</time>
      </trkpt>
      <trkpt lat="42.10412" lon="60.07733">
        <ele>79.5</ele>
        <time>2018-08-05T01:43:12.000Z</time>
      </trkpt>
      <trkpt lat="42.10204" lon="60.07962">
        <ele>79.7</ele>
        <time>2018-08-05T01:44:13.000Z</time>
      </trkpt>
      <trkpt lat="42.09998" lon="60.08184">
        <ele>80.6</ele>
        <time>2018-08-05T01:45:14.000Z</time>
      </trkpt>
      <trkpt lat="42.09786" lon="60.08418">
        <ele>82.5</ele>
        <time>2018-08-05T01:46:15.000Z</time>
      </trkpt>
      <trkpt lat="42.09552" lon="60.08675">
        <ele>81.1</ele>
        <time>2018-08-05T01:47:16.000Z</time>
      </trkpt>
      <trkpt lat="42.09307" lon="60.08945">
        <ele>82.4</ele>
        <time>2018-08-05T01:48:17.000Z</time>
      </trkpt>
      <trkpt lat="42.09071" lon="60.09204">
        <ele>81.8</ele>
        <time>2018-08-05T01:49:18.000Z</time>
      </trkpt>
      <trkpt lat="42.08831" lon="60.09467">
        <ele>82.8</ele>
        <time>2018-08-05T01:50:19.000Z</time>
      </trkpt>
      <trkpt lat="42.08585" lon="60.09737">
        <ele>83.6</ele>
        <time>2018-08-05T01:51:20.000Z</time>
      </trkpt>
      <trkpt lat="42.08341" lon="60.10001">
        <ele>84.9</ele>
        <time>2018-08-05T01:52:21.000Z</time>
      </trkpt>
      <trkpt lat="42.08101" lon="60.10262">
        <ele>83.4</ele>
        <time>2018-08-05T01:53:22.000Z</time>
      </trkpt>
      <trkpt lat="42.07857" lon="60.10532">
        <ele>83.7</ele>
        <time>2018-08-05T01:54:23.000Z</time>
      </trkpt>
      <trkpt lat="42.0761" lon="60.10803">
        <ele>84.3</ele>
        <time>2018-08-05T01:55:24.000Z</time>
      </trkpt>
      <trkpt lat="42.07359" lon="60.11079">
        <ele>82.1</ele>
        <time>2018-08-05T01:56:25.000Z</time>
      </trkpt>
      <trkpt lat="42.0713" lon="60.11336">
        <ele>84</ele>
        <time>2018-08-05T01:57:26.000Z</time>
      </trkpt>
      <trkpt lat="42.06984" lon="60.11671">
        <ele>82.4</ele>
        <time>2018-08-05T01:58:27.000Z</time>
      </trkpt>
      <trkpt lat="42.06879" lon="60.12024">
        <ele>86.7</ele>
        <time>2018-08-05T01:59:28.000Z</time>
      </trkpt>
      <trkpt lat="42.06765" lon="60.12369">
        <ele>85.2</ele>
        <time>2018-08-05T02:00:29.000Z</time>
      </trkpt>
      <trkpt lat="42.06643" lon="60.12716">
        <ele>86.7</ele>
        <time>2018-08-05T02:01:30.000Z</time>
      </trkpt>
      <trkpt lat="42.06545" lon="60.13077">
        <ele>85.8</ele>
        <time>2018-08-05T02:02:31.000Z</time>
      </trkpt>
      <trkpt lat="42.06457" lon="60.13451">
        <ele>85.4</ele>
        <time>2018-08-05T02:03:32.000Z</time>
      </trkpt>
      <trkpt lat="42.06326" lon="60.13796">
        <ele>87</ele>
        <time>2018-08-05T02:04:32.000Z</time>
      </trkpt>
      <trkpt lat="42.0609" lon="60.14032">
        <ele>87.4</ele>
        <time>2018-08-05T02:05:32.000Z</time>
      </trkpt>
      <trkpt lat="42.05852" lon="60.14258">
        <ele>86</ele>
        <time>2018-08-05T02:06:33.000Z</time>
      </trkpt>
      <trkpt lat="42.05624" lon="60.1448">
        <ele>87.7</ele>
        <time>2018-08-05T02:07:34.000Z</time>
      </trkpt>
      <trkpt lat="42.05401" lon="60.14693">
        <ele>87.2</ele>
        <time>2018-08-05T02:08:35.000Z</time>
      </trkpt>
      <trkpt lat="42.05168" lon="60.14914">
        <ele>86.9</ele>
        <time>2018-08-05T02:09:36.000Z</time>
      </trkpt>
      <trkpt lat="42.04928" lon="60.15142">
        <ele>87</ele>
        <time>2018-08-05T02:10:37.000Z</time>
      </trkpt>
      <trkpt lat="42.04685" lon="60.15368">
        <ele>88.1</ele>
        <time>2018-08-05T02:11:38.000Z</time>
      </trkpt>
      <trkpt lat="42.04449" lon="60.15597">
        <ele>89</ele>
        <time>2018-08-05T02:12:38.000Z</time>
      </trkpt>
      <trkpt lat="42.04207" lon="60.15828">
        <ele>89.6</ele>
        <time>2018-08-05T02:13:39.000Z</time>
      </trkpt>
      <trkpt lat="42.03957" lon="60.16064">
        <ele>90.1</ele>
        <time>2018-08-05T02:14:40.000Z</time>
      </trkpt>
      <trkpt lat="42.03712" lon="60.16298">
        <ele>90.3</ele>
        <time>2018-08-05T02:15:41.000Z</time>
      </trkpt>
      <trkpt lat="42.03521" lon="60.16598">
        <ele>87.9</ele>
        <time>2018-08-05T02:16:42.000Z</time>
      </trkpt>
      <trkpt lat="42.03374" lon="60.16929">
        <ele>87.2</ele>
        <time>2018-08-05T02:17:43.000Z</time>
      </trkpt>
      <trkpt lat="42.03237" lon="60.17237">
        <ele>87.9</ele>
        <time>2018-08-05T02:18:44.000Z</time>
      </trkpt>
      <trkpt lat="42.03099" lon="60.17543">
        <ele>88.1</ele>
        <time>2018-08-05T02:19:45.000Z</time>
      </trkpt>
      <trkpt lat="42.02959" lon="60.17855">
        <ele>87</ele>
        <time>2018-08-05T02:20:46.000Z</time>
      </trkpt>
      <trkpt lat="42.02827" lon="60.18152">
        <ele>87.2</ele>
        <time>2018-08-05T02:21:47.000Z</time>
      </trkpt>
      <trkpt lat="42.02693" lon="60.18451">
        <ele>87.3</ele>
        <time>2018-08-05T02:22:48.000Z</time>
      </trkpt>
      <trkpt lat="42.02556" lon="60.18754">
        <ele>87.8</ele>
        <time>2018-08-05T02:23:49.000Z</time>
      </trkpt>
      <trkpt lat="42.02409" lon="60.19077">
        <ele>87</ele>
        <time>2018-08-05T02:24:50.000Z</time>
      </trkpt>
      <trkpt lat="42.0227" lon="60.19385">
        <ele>87.5</ele>
        <time>2018-08-05T02:25:50.000Z</time>
      </trkpt>
      <trkpt lat="42.02135" lon="60.19694">
        <ele>89.4</ele>
        <time>2018-08-05T02:26:51.000Z</time>
      </trkpt>
      <trkpt lat="42.01996" lon="60.2">
        <ele>89.8</ele>
        <time>2018-08-05T02:27:52.000Z</time>
      </trkpt>
      <trkpt lat="42.01884" lon="60.20215">
        <ele>88.3</ele>
        <time>2018-08-05T02:28:53.000Z</time>
      </trkpt>
      <trkpt lat="42.01821" lon="60.20376">
        <ele>90.7</ele>
        <time>2018-08-05T02:30:15.000Z</time>
      </trkpt>
      <trkpt lat="42.01751" lon="60.20532">
        <ele>89.2</ele>
        <time>2018-08-05T02:31:26.000Z</time>
      </trkpt>
      <trkpt lat="42.01631" lon="60.20809">
        <ele>90</ele>
        <time>2018-08-05T02:32:27.000Z</time>
      </trkpt>
      <trkpt lat="42.01499" lon="60.21104">
        <ele>90.1</ele>
        <time>2018-08-05T02:33:28.000Z</time>
      </trkpt>
      <trkpt lat="42.01371" lon="60.214">
        <ele>89.1</ele>
        <time>2018-08-05T02:34:29.000Z</time>
      </trkpt>
      <trkpt lat="42.01245" lon="60.21677">
        <ele>88.7</ele>
        <time>2018-08-05T02:35:30.000Z</time>
      </trkpt>
      <trkpt lat="42.01118" lon="60.21938">
        <ele>89.4</ele>
        <time>2018-08-05T02:36:31.000Z</time>
      </trkpt>
      <trkpt lat="42.0097" lon="60.22195">
        <ele>90</ele>
        <time>2018-08-05T02:37:32.000Z</time>
      </trkpt>
      <trkpt lat="42.00796" lon="60.22445">
        <ele>90.7</ele>
        <time>2018-08-05T02:38:33.000Z</time>
      </trkpt>
      <trkpt lat="42.00607" lon="60.22668">
        <ele>90.9</ele>
        <time>2018-08-05T02:39:34.000Z</time>
      </trkpt>
      <trkpt lat="42.00416" lon="60.22854">
        <ele>90</ele>
        <time>2018-08-05T02:40:35.000Z</time>
      </trkpt>
      <trkpt lat="42.00225" lon="60.23012">
        <ele>91.4</ele>
        <time>2018-08-05T02:41:36.000Z</time>
      </trkpt>
      <trkpt lat="42.00031" lon="60.23175">
        <ele>90.9</ele>
        <time>2018-08-05T02:42:36.000Z</time>
      </trkpt>
      <trkpt lat="41.99814" lon="60.23349">
        <ele>92.5</ele>
        <time>2018-08-05T02:43:37.000Z</time>
      </trkpt>
      <trkpt lat="41.99614" lon="60.23514">
        <ele>93.2</ele>
        <time>2018-08-05T02:44:38.000Z</time>
      </trkpt>
      <trkpt lat="41.99417" lon="60.23674">
        <ele>92.7</ele>
        <time>2018-08-05T02:45:39.000Z</time>
      </trkpt>
      <trkpt lat="41.99197" lon="60.23858">
        <ele>94.1</ele>
        <time>2018-08-05T02:46:39.000Z</time>
      </trkpt>
      <trkpt lat="41.98972" lon="60.24039">
        <ele>92.8</ele>
        <time>2018-08-05T02:47:40.000Z</time>
      </trkpt>
      <trkpt lat="41.9872" lon="60.24244">
        <ele>92.9</ele>
        <time>2018-08-05T02:48:41.000Z</time>
      </trkpt>
      <trkpt lat="41.98476" lon="60.24439">
        <ele>94.4</ele>
        <time>2018-08-05T02:49:42.000Z</time>
      </trkpt>
      <trkpt lat="41.98219" lon="60.24648">
        <ele>89.2</ele>
        <time>2018-08-05T02:50:43.000Z</time>
      </trkpt>
      <trkpt lat="41.97973" lon="60.24851">
        <ele>93.3</ele>
        <time>2018-08-05T02:51:44.000Z</time>
      </trkpt>
      <trkpt lat="41.97732" lon="60.25046">
        <ele>92.4</ele>
        <time>2018-08-05T02:52:44.000Z</time>
      </trkpt>
      <trkpt lat="41.97479" lon="60.25252">
        <ele>93.1</ele>
        <time>2018-08-05T02:53:45.000Z</time>
      </trkpt>
      <trkpt lat="41.97202" lon="60.25477">
        <ele>92</ele>
        <time>2018-08-05T02:54:46.000Z</time>
      </trkpt>
      <trkpt lat="41.96934" lon="60.25692">
        <ele>93.3</ele>
        <time>2018-08-05T02:55:47.000Z</time>
      </trkpt>
      <trkpt lat="41.96676" lon="60.25905">
        <ele>94.8</ele>
        <time>2018-08-05T02:56:48.000Z</time>
      </trkpt>
      <trkpt lat="41.96441" lon="60.26099">
        <ele>93.3</ele>
        <time>2018-08-05T02:57:49.000Z</time>
      </trkpt>
      <trkpt lat="41.96214" lon="60.26279">
        <ele>96.1</ele>
        <time>2018-08-05T02:58:50.000Z</time>
      </trkpt>
      <trkpt lat="41.9603" lon="60.2643">
        <ele>96.3</ele>
        <time>2018-08-05T02:59:51.000Z</time>
      </trkpt>
      <trkpt lat="41.95914" lon="60.26524">
        <ele>93.1</ele>
        <time>2018-08-05T03:02:33.000Z</time>
      </trkpt>
      <trkpt lat="41.95694" lon="60.26705">
        <ele>93.4</ele>
        <time>2018-08-05T03:03:34.000Z</time>
      </trkpt>
      <trkpt lat="41.95462" lon="60.26894">
        <ele>92.1</ele>
        <time>2018-08-05T03:04:34.000Z</time>
      </trkpt>
      <trkpt lat="41.95216" lon="60.27095">
        <ele>91.7</ele>
        <time>2018-08-05T03:05:35.000Z</time>
      </trkpt>
      <trkpt lat="41.94975" lon="60.27291">
        <ele>92.4</ele>
        <time>2018-08-05T03:06:36.000Z</time>
      </trkpt>
      <trkpt lat="41.94748" lon="60.27478">
        <ele>92.9</ele>
        <time>2018-08-05T03:07:36.000Z</time>
      </trkpt>
      <trkpt lat="41.94513" lon="60.27667">
        <ele>92.6</ele>
        <time>2018-08-05T03:08:37.000Z</time>
      </trkpt>
      <trkpt lat="41.94283" lon="60.27858">
        <ele>93.7</ele>
        <time>2018-08-05T03:09:38.000Z</time>
      </trkpt>
      <trkpt lat="41.9406" lon="60.28038">
        <ele>92.9</ele>
        <time>2018-08-05T03:10:39.000Z</time>
      </trkpt>
      <trkpt lat="41.93813" lon="60.2825">
        <ele>93.6</ele>
        <time>2018-08-05T03:11:40.000Z</time>
      </trkpt>
      <trkpt lat="41.93545" lon="60.28463">
        <ele>92.8</ele>
        <time>2018-08-05T03:12:41.000Z</time>
      </trkpt>
      <trkpt lat="41.93308" lon="60.28657">
        <ele>93</ele>
        <time>2018-08-05T03:13:42.000Z</time>
      </trkpt>
      <trkpt lat="41.93061" lon="60.28862">
        <ele>92.1</ele>
        <time>2018-08-05T03:14:43.000Z</time>
      </trkpt>
      <trkpt lat="41.9281" lon="60.29064">
        <ele>93.7</ele>
        <time>2018-08-05T03:15:44.000Z</time>
      </trkpt>
      <trkpt lat="41.92566" lon="60.29262">
        <ele>93.3</ele>
        <time>2018-08-05T03:16:45.000Z</time>
      </trkpt>
      <trkpt lat="41.92308" lon="60.29468">
        <ele>94.3</ele>
        <time>2018-08-05T03:17:46.000Z</time>
      </trkpt>
      <trkpt lat="41.92059" lon="60.29674">
        <ele>94.2</ele>
        <time>2018-08-05T03:18:47.000Z</time>
      </trkpt>
      <trkpt lat="41.91822" lon="60.29865">
        <ele>91.7</ele>
        <time>2018-08-05T03:19:48.000Z</time>
      </trkpt>
      <trkpt lat="41.91586" lon="60.30057">
        <ele>92.9</ele>
        <time>2018-08-05T03:20:49.000Z</time>
      </trkpt>
      <trkpt lat="41.91348" lon="60.30256">
        <ele>93.1</ele>
        <time>2018-08-05T03:21:50.000Z</time>
      </trkpt>
      <trkpt lat="41.91115" lon="60.30449">
        <ele>93.7</ele>
        <time>2018-08-05T03:22:51.000Z</time>
      </trkpt>
      <trkpt lat="41.90841" lon="60.30679">
        <ele>93.8</ele>
        <time>2018-08-05T03:23:52.000Z</time>
      </trkpt>
      <trkpt lat="41.90572" lon="60.30909">
        <ele>93.1</ele>
        <time>2018-08-05T03:24:53.000Z</time>
      </trkpt>
      <trkpt lat="41.90326" lon="60.31165">
        <ele>93.3</ele>
        <time>2018-08-05T03:25:53.000Z</time>
      </trkpt>
      <trkpt lat="41.90126" lon="60.31467">
        <ele>93.3</ele>
        <time>2018-08-05T03:26:54.000Z</time>
      </trkpt>
      <trkpt lat="41.89963" lon="60.31791">
        <ele>93.5</ele>
        <time>2018-08-05T03:27:55.000Z</time>
      </trkpt>
      <trkpt lat="41.89829" lon="60.32115">
        <ele>95.6</ele>
        <time>2018-08-05T03:28:56.000Z</time>
      </trkpt>
      <trkpt lat="41.89697" lon="60.32438">
        <ele>95.7</ele>
        <time>2018-08-05T03:29:57.000Z</time>
      </trkpt>
      <trkpt lat="41.89563" lon="60.32776">
        <ele>95.8</ele>
        <time>2018-08-05T03:30:58.000Z</time>
      </trkpt>
      <trkpt lat="41.89423" lon="60.33104">
        <ele>96</ele>
        <time>2018-08-05T03:31:59.000Z</time>
      </trkpt>
      <trkpt lat="41.89351" lon="60.33265">
        <ele>95.1</ele>
        <time>2018-08-05T03:33:00.000Z</time>
      </trkpt>
      <trkpt lat="41.8927" lon="60.33434">
        <ele>95.4</ele>
        <time>2018-08-05T03:34:01.000Z</time>
      </trkpt>
      <trkpt lat="41.89111" lon="60.33737">
        <ele>93.4</ele>
        <time>2018-08-05T03:35:02.000Z</time>
      </trkpt>
      <trkpt lat="41.88917" lon="60.34005">
        <ele>94.2</ele>
        <time>2018-08-05T03:36:03.000Z</time>
      </trkpt>
      <trkpt lat="41.88709" lon="60.34241">
        <ele>94.1</ele>
        <time>2018-08-05T03:37:04.000Z</time>
      </trkpt>
      <trkpt lat="41.88499" lon="60.34479">
        <ele>94.2</ele>
        <time>2018-08-05T03:38:05.000Z</time>
      </trkpt>
      <trkpt lat="41.88288" lon="60.34729">
        <ele>93.9</ele>
        <time>2018-08-05T03:39:06.000Z</time>
      </trkpt>
      <trkpt lat="41.88058" lon="60.3499">
        <ele>94.1</ele>
        <time>2018-08-05T03:40:07.000Z</time>
      </trkpt>
      <trkpt lat="41.87851" lon="60.3523">
        <ele>94.5</ele>
        <time>2018-08-05T03:41:08.000Z</time>
      </trkpt>
      <trkpt lat="41.8764" lon="60.35472">
        <ele>94.8</ele>
        <time>2018-08-05T03:42:09.000Z</time>
      </trkpt>
      <trkpt lat="41.87431" lon="60.35711">
        <ele>94.3</ele>
        <time>2018-08-05T03:43:10.000Z</time>
      </trkpt>
      <trkpt lat="41.87228" lon="60.35942">
        <ele>93.9</ele>
        <time>2018-08-05T03:44:11.000Z</time>
      </trkpt>
      <trkpt lat="41.87019" lon="60.3618">
        <ele>94.4</ele>
        <time>2018-08-05T03:45:12.000Z</time>
      </trkpt>
      <trkpt lat="41.86812" lon="60.36418">
        <ele>92.5</ele>
        <time>2018-08-05T03:46:13.000Z</time>
      </trkpt>
      <trkpt lat="41.86594" lon="60.36657">
        <ele>92.7</ele>
        <time>2018-08-05T03:47:14.000Z</time>
      </trkpt>
      <trkpt lat="41.86346" lon="60.36874">
        <ele>93.3</ele>
        <time>2018-08-05T03:48:15.000Z</time>
      </trkpt>
      <trkpt lat="41.86076" lon="60.37025">
        <ele>94.5</ele>
        <time>2018-08-05T03:49:16.000Z</time>
      </trkpt>
      <trkpt lat="41.8581" lon="60.37136">
        <ele>93.9</ele>
        <time>2018-08-05T03:50:17.000Z</time>
      </trkpt>
      <trkpt lat="41.8554" lon="60.37209">
        <ele>94.1</ele>
        <time>2018-08-05T03:51:18.000Z</time>
      </trkpt>
      <trkpt lat="41.85275" lon="60.37285">
        <ele>94.7</ele>
        <time>2018-08-05T03:52:18.000Z</time>
      </trkpt>
      <trkpt lat="41.84995" lon="60.37357">
        <ele>92</ele>
        <time>2018-08-05T03:53:19.000Z</time>
      </trkpt>
      <trkpt lat="41.84738" lon="60.3743">
        <ele>93.8</ele>
        <time>2018-08-05T03:54:20.000Z</time>
      </trkpt>
      <trkpt lat="41.84479" lon="60.37472">
        <ele>93.5</ele>
        <time>2018-08-05T03:55:20.000Z</time>
      </trkpt>
      <trkpt lat="41.84235" lon="60.37492">
        <ele>92.7</ele>
        <time>2018-08-05T03:56:21.000Z</time>
      </trkpt>
      <trkpt lat="41.83991" lon="60.37511">
        <ele>91.8</ele>
        <time>2018-08-05T03:57:22.000Z</time>
      </trkpt>
      <trkpt lat="41.83734" lon="60.37524">
        <ele>92.2</ele>
        <time>2018-08-05T03:58:23.000Z</time>
      </trkpt>
      <trkpt lat="41.83597" lon="60.37531">
        <ele>88.5</ele>
        <time>2018-08-05T03:59:24.000Z</time>
      </trkpt>
      <trkpt lat="41.83361" lon="60.37539">
        <ele>87.7</ele>
        <time>2018-08-05T04:00:25.000Z</time>
      </trkpt>
      <trkpt lat="41.83194" lon="60.37553">
        <ele>87.3</ele>
        <time>2018-08-05T04:01:26.000Z</time>
      </trkpt>
      <trkpt lat="41.83057" lon="60.37544">
        <ele>86.5</ele>
        <time>2018-08-05T04:17:05.000Z</time>
      </trkpt>
      <trkpt lat="41.82915" lon="60.37754">
        <ele>88.4</ele>
        <time>2018-08-05T04:18:06.000Z</time>
      </trkpt>
      <trkpt lat="41.831" lon="60.37969">
        <ele>87.5</ele>
        <time>2018-08-05T04:19:07.000Z</time>
      </trkpt>
      <trkpt lat="41.83274" lon="60.3824">
        <ele>85.6</ele>
        <time>2018-08-05T04:20:08.000Z</time>
      </trkpt>
      <trkpt lat="41.83441" lon="60.38495">
        <ele>82.7</ele>
        <time>2018-08-05T04:21:09.000Z</time>
      </trkpt>
      <trkpt lat="41.83525" lon="60.3864">
        <ele>87.6</ele>
        <time>2018-08-05T04:22:41.000Z</time>
      </trkpt>
      <trkpt lat="41.83666" lon="60.38828">
        <ele>86</ele>
        <time>2018-08-05T04:23:42.000Z</time>
      </trkpt>
      <trkpt lat="41.83573" lon="60.38691">
        <ele>87.5</ele>
        <time>2018-08-05T05:08:43.000Z</time>
      </trkpt>
      <trkpt lat="41.83456" lon="60.38502">
        <ele>87.9</ele>
        <time>2018-08-05T05:09:44.000Z</time>
      </trkpt>
      <trkpt lat="41.83257" lon="60.38192">
        <ele>91.2</ele>
        <time>2018-08-05T05:10:45.000Z</time>
      </trkpt>
      <trkpt lat="41.83053" lon="60.3788">
        <ele>91.1</ele>
        <time>2018-08-05T05:11:46.000Z</time>
      </trkpt>
      <trkpt lat="41.82866" lon="60.37691">
        <ele>93.7</ele>
        <time>2018-08-05T05:12:47.000Z</time>
      </trkpt>
      <trkpt lat="41.82598" lon="60.37485">
        <ele>92.3</ele>
        <time>2018-08-05T05:13:48.000Z</time>
      </trkpt>
      <trkpt lat="41.82347" lon="60.37292">
        <ele>88.5</ele>
        <time>2018-08-05T05:14:49.000Z</time>
      </trkpt>
      <trkpt lat="41.82093" lon="60.371">
        <ele>86.9</ele>
        <time>2018-08-05T05:15:50.000Z</time>
      </trkpt>
      <trkpt lat="41.81835" lon="60.36902">
        <ele>88</ele>
        <time>2018-08-05T05:16:51.000Z</time>
      </trkpt>
      <trkpt lat="41.81591" lon="60.36761">
        <ele>88.2</ele>
        <time>2018-08-05T05:17:52.000Z</time>
      </trkpt>
      <trkpt lat="41.8132" lon="60.36607">
        <ele>89.1</ele>
        <time>2018-08-05T05:18:53.000Z</time>
      </trkpt>
      <trkpt lat="41.81063" lon="60.36463">
        <ele>89.7</ele>
        <time>2018-08-05T05:19:54.000Z</time>
      </trkpt>
      <trkpt lat="41.80794" lon="60.36313">
        <ele>89</ele>
        <time>2018-08-05T05:20:55.000Z</time>
      </trkpt>
      <trkpt lat="41.80521" lon="60.36156">
        <ele>86.2</ele>
        <time>2018-08-05T05:21:56.000Z</time>
      </trkpt>
      <trkpt lat="41.80256" lon="60.36007">
        <ele>88.6</ele>
        <time>2018-08-05T05:22:57.000Z</time>
      </trkpt>
      <trkpt lat="41.80005" lon="60.35865">
        <ele>88.8</ele>
        <time>2018-08-05T05:23:58.000Z</time>
      </trkpt>
      <trkpt lat="41.79737" lon="60.35713">
        <ele>89</ele>
        <time>2018-08-05T05:24:59.000Z</time>
      </trkpt>
      <trkpt lat="41.79474" lon="60.35567">
        <ele>90.9</ele>
        <time>2018-08-05T05:25:59.000Z</time>
      </trkpt>
      <trkpt lat="41.79253" lon="60.35441">
        <ele>95</ele>
        <time>2018-08-05T05:27:00.000Z</time>
      </trkpt>
      <trkpt lat="41.78958" lon="60.35273">
        <ele>88.9</ele>
        <time>2018-08-05T05:28:01.000Z</time>
      </trkpt>
      <trkpt lat="41.78686" lon="60.35123">
        <ele>93.3</ele>
        <time>2018-08-05T05:29:02.000Z</time>
      </trkpt>
      <trkpt lat="41.78433" lon="60.3498">
        <ele>91.3</ele>
        <time>2018-08-05T05:30:03.000Z</time>
      </trkpt>
      <trkpt lat="41.7818" lon="60.34839">
        <ele>92.5</ele>
        <time>2018-08-05T05:31:04.000Z</time>
      </trkpt>
      <trkpt lat="41.77955" lon="60.3471">
        <ele>86.5</ele>
        <time>2018-08-05T05:32:05.000Z</time>
      </trkpt>
      <trkpt lat="41.77705" lon="60.34574">
        <ele>90.5</ele>
        <time>2018-08-05T05:33:06.000Z</time>
      </trkpt>
      <trkpt lat="41.77464" lon="60.34434">
        <ele>91.3</ele>
        <time>2018-08-05T05:34:07.000Z</time>
      </trkpt>
      <trkpt lat="41.77237" lon="60.3431">
        <ele>92.1</ele>
        <time>2018-08-05T05:35:08.000Z</time>
      </trkpt>
      <trkpt lat="41.77003" lon="60.34179">
        <ele>92.2</ele>
        <time>2018-08-05T05:36:09.000Z</time>
      </trkpt>
      <trkpt lat="41.76769" lon="60.34046">
        <ele>89.2</ele>
        <time>2018-08-05T05:37:10.000Z</time>
      </trkpt>
      <trkpt lat="41.76513" lon="60.33904">
        <ele>88.5</ele>
        <time>2018-08-05T05:38:11.000Z</time>
      </trkpt>
      <trkpt lat="41.76269" lon="60.33764">
        <ele>87.8</ele>
        <time>2018-08-05T05:39:12.000Z</time>
      </trkpt>
      <trkpt lat="41.76055" lon="60.33643">
        <ele>91</ele>
        <time>2018-08-05T05:40:13.000Z</time>
      </trkpt>
      <trkpt lat="41.75845" lon="60.33528">
        <ele>92.7</ele>
        <time>2018-08-05T05:41:14.000Z</time>
      </trkpt>
      <trkpt lat="41.75642" lon="60.33416">
        <ele>91.4</ele>
        <time>2018-08-05T05:42:15.000Z</time>
      </trkpt>
      <trkpt lat="41.75422" lon="60.33288">
        <ele>90.4</ele>
        <time>2018-08-05T05:43:15.000Z</time>
      </trkpt>
      <trkpt lat="41.75174" lon="60.33153">
        <ele>86.5</ele>
        <time>2018-08-05T05:44:16.000Z</time>
      </trkpt>
      <trkpt lat="41.75045" lon="60.33093">
        <ele>89.3</ele>
        <time>2018-08-05T05:45:17.000Z</time>
      </trkpt>
      <trkpt lat="41.7492" lon="60.33013">
        <ele>91.1</ele>
        <time>2018-08-05T05:46:41.000Z</time>
      </trkpt>
      <trkpt lat="41.7467" lon="60.32867">
        <ele>92.9</ele>
        <time>2018-08-05T05:47:42.000Z</time>
      </trkpt>
      <trkpt lat="41.74432" lon="60.32735">
        <ele>94.9</ele>
        <time>2018-08-05T05:48:43.000Z</time>
      </trkpt>
      <trkpt lat="41.74189" lon="60.32597">
        <ele>92</ele>
        <time>2018-08-05T05:49:44.000Z</time>
      </trkpt>
      <trkpt lat="41.73958" lon="60.32468">
        <ele>91.4</ele>
        <time>2018-08-05T05:50:45.000Z</time>
      </trkpt>
      <trkpt lat="41.73724" lon="60.32334">
        <ele>91.9</ele>
        <time>2018-08-05T05:51:46.000Z</time>
      </trkpt>
      <trkpt lat="41.73498" lon="60.32207">
        <ele>93.4</ele>
        <time>2018-08-05T05:52:47.000Z</time>
      </trkpt>
      <trkpt lat="41.73248" lon="60.3207">
        <ele>91.3</ele>
        <time>2018-08-05T05:53:48.000Z</time>
      </trkpt>
      <trkpt lat="41.72994" lon="60.31881">
        <ele>89.6</ele>
        <time>2018-08-05T05:54:49.000Z</time>
      </trkpt>
      <trkpt lat="41.72795" lon="60.31592">
        <ele>90.7</ele>
        <time>2018-08-05T05:55:50.000Z</time>
      </trkpt>
      <trkpt lat="41.72642" lon="60.31265">
        <ele>94.4</ele>
        <time>2018-08-05T05:56:51.000Z</time>
      </trkpt>
      <trkpt lat="41.72476" lon="60.30917">
        <ele>92.7</ele>
        <time>2018-08-05T05:57:52.000Z</time>
      </trkpt>
      <trkpt lat="41.72316" lon="60.30619">
        <ele>91.7</ele>
        <time>2018-08-05T05:58:53.000Z</time>
      </trkpt>
      <trkpt lat="41.72156" lon="60.30319">
        <ele>94.4</ele>
        <time>2018-08-05T05:59:54.000Z</time>
      </trkpt>
      <trkpt lat="41.71988" lon="60.30012">
        <ele>92.2</ele>
        <time>2018-08-05T06:00:55.000Z</time>
      </trkpt>
      <trkpt lat="41.71822" lon="60.29714">
        <ele>92.6</ele>
        <time>2018-08-05T06:01:56.000Z</time>
      </trkpt>
      <trkpt lat="41.71591" lon="60.29491">
        <ele>90.6</ele>
        <time>2018-08-05T06:02:57.000Z</time>
      </trkpt>
      <trkpt lat="41.71374" lon="60.2929">
        <ele>90.9</ele>
        <time>2018-08-05T06:03:58.000Z</time>
      </trkpt>
      <trkpt lat="41.7114" lon="60.29069">
        <ele>91.5</ele>
        <time>2018-08-05T06:04:59.000Z</time>
      </trkpt>
      <trkpt lat="41.7092" lon="60.28865">
        <ele>91.9</ele>
        <time>2018-08-05T06:06:00.000Z</time>
      </trkpt>
      <trkpt lat="41.70692" lon="60.28659">
        <ele>92.7</ele>
        <time>2018-08-05T06:07:01.000Z</time>
      </trkpt>
      <trkpt lat="41.70512" lon="60.28482">
        <ele>97.8</ele>
        <time>2018-08-05T06:08:02.000Z</time>
      </trkpt>
      <trkpt lat="41.70356" lon="60.28338">
        <ele>100.7</ele>
        <time>2018-08-05T06:09:03.000Z</time>
      </trkpt>
      <trkpt lat="41.70173" lon="60.28189">
        <ele>97.6</ele>
        <time>2018-08-05T06:10:04.000Z</time>
      </trkpt>
      <trkpt lat="41.70006" lon="60.28171">
        <ele>95.3</ele>
        <time>2018-08-05T06:11:05.000Z</time>
      </trkpt>
      <trkpt lat="41.6987" lon="60.28175">
        <ele>94.6</ele>
        <time>2018-08-05T06:14:40.000Z</time>
      </trkpt>
      <trkpt lat="41.69565" lon="60.28195">
        <ele>99.6</ele>
        <time>2018-08-05T06:15:41.000Z</time>
      </trkpt>
      <trkpt lat="41.69271" lon="60.28218">
        <ele>99.4</ele>
        <time>2018-08-05T06:16:42.000Z</time>
      </trkpt>
      <trkpt lat="41.69001" lon="60.28227">
        <ele>97.2</ele>
        <time>2018-08-05T06:17:43.000Z</time>
      </trkpt>
      <trkpt lat="41.6876" lon="60.28136">
        <ele>94.9</ele>
        <time>2018-08-05T06:18:44.000Z</time>
      </trkpt>
      <trkpt lat="41.68541" lon="60.27933">
        <ele>94.6</ele>
        <time>2018-08-05T06:19:45.000Z</time>
      </trkpt>
      <trkpt lat="41.68344" lon="60.27736">
        <ele>94.2</ele>
        <time>2018-08-05T06:20:46.000Z</time>
      </trkpt>
      <trkpt lat="41.68102" lon="60.27547">
        <ele>94.7</ele>
        <time>2018-08-05T06:21:47.000Z</time>
      </trkpt>
      <trkpt lat="41.67969" lon="60.27512">
        <ele>96.4</ele>
        <time>2018-08-05T06:34:42.000Z</time>
      </trkpt>
      <trkpt lat="41.67701" lon="60.27438">
        <ele>96.6</ele>
        <time>2018-08-05T06:35:43.000Z</time>
      </trkpt>
      <trkpt lat="41.67435" lon="60.27366">
        <ele>98.7</ele>
        <time>2018-08-05T06:36:44.000Z</time>
      </trkpt>
      <trkpt lat="41.67164" lon="60.27295">
        <ele>96.2</ele>
        <time>2018-08-05T06:37:45.000Z</time>
      </trkpt>
      <trkpt lat="41.66912" lon="60.27224">
        <ele>98.2</ele>
        <time>2018-08-05T06:38:46.000Z</time>
      </trkpt>
      <trkpt lat="41.66633" lon="60.27153">
        <ele>98.9</ele>
        <time>2018-08-05T06:39:47.000Z</time>
      </trkpt>
      <trkpt lat="41.66364" lon="60.27085">
        <ele>99</ele>
        <time>2018-08-05T06:40:48.000Z</time>
      </trkpt>
      <trkpt lat="41.66166" lon="60.27025">
        <ele>97.4</ele>
        <time>2018-08-05T06:41:49.000Z</time>
      </trkpt>
      <trkpt lat="41.66028" lon="60.27">
        <ele>98.3</ele>
        <time>2018-08-05T06:44:14.000Z</time>
      </trkpt>
      <trkpt lat="41.65726" lon="60.26928">
        <ele>99.8</ele>
        <time>2018-08-05T06:45:15.000Z</time>
      </trkpt>
      <trkpt lat="41.65449" lon="60.27059">
        <ele>95.5</ele>
        <time>2018-08-05T06:46:16.000Z</time>
      </trkpt>
      <trkpt lat="41.65206" lon="60.27222">
        <ele>94.7</ele>
        <time>2018-08-05T06:47:17.000Z</time>
      </trkpt>
      <trkpt lat="41.64939" lon="60.27397">
        <ele>93.9</ele>
        <time>2018-08-05T06:48:18.000Z</time>
      </trkpt>
      <trkpt lat="41.64672" lon="60.27572">
        <ele>94.7</ele>
        <time>2018-08-05T06:49:19.000Z</time>
      </trkpt>
      <trkpt lat="41.64401" lon="60.2775">
        <ele>93.3</ele>
        <time>2018-08-05T06:50:20.000Z</time>
      </trkpt>
      <trkpt lat="41.6415" lon="60.27915">
        <ele>94.5</ele>
        <time>2018-08-05T06:51:20.000Z</time>
      </trkpt>
      <trkpt lat="41.63884" lon="60.28087">
        <ele>94.4</ele>
        <time>2018-08-05T06:52:21.000Z</time>
      </trkpt>
      <trkpt lat="41.63647" lon="60.28243">
        <ele>96.7</ele>
        <time>2018-08-05T06:53:22.000Z</time>
      </trkpt>
      <trkpt lat="41.63388" lon="60.28439">
        <ele>94.8</ele>
        <time>2018-08-05T06:54:23.000Z</time>
      </trkpt>
      <trkpt lat="41.63175" lon="60.28685">
        <ele>94.1</ele>
        <time>2018-08-05T06:55:24.000Z</time>
      </trkpt>
      <trkpt lat="41.62967" lon="60.28934">
        <ele>93.4</ele>
        <time>2018-08-05T06:56:25.000Z</time>
      </trkpt>
      <trkpt lat="41.62761" lon="60.29176">
        <ele>95.4</ele>
        <time>2018-08-05T06:57:26.000Z</time>
      </trkpt>
      <trkpt lat="41.62551" lon="60.29425">
        <ele>93.8</ele>
        <time>2018-08-05T06:58:27.000Z</time>
      </trkpt>
      <trkpt lat="41.62344" lon="60.29668">
        <ele>93.8</ele>
        <time>2018-08-05T06:59:28.000Z</time>
      </trkpt>
      <trkpt lat="41.62145" lon="60.29905">
        <ele>93.7</ele>
        <time>2018-08-05T07:00:29.000Z</time>
      </trkpt>
      <trkpt lat="41.6194" lon="60.30143">
        <ele>94.6</ele>
        <time>2018-08-05T07:01:30.000Z</time>
      </trkpt>
      <trkpt lat="41.61759" lon="60.30352">
        <ele>94.1</ele>
        <time>2018-08-05T07:02:31.000Z</time>
      </trkpt>
      <trkpt lat="41.6159" lon="60.30562">
        <ele>93.2</ele>
        <time>2018-08-05T07:03:32.000Z</time>
      </trkpt>
      <trkpt lat="41.61403" lon="60.30783">
        <ele>94.5</ele>
        <time>2018-08-05T07:04:33.000Z</time>
      </trkpt>
      <trkpt lat="41.61213" lon="60.31003">
        <ele>93.8</ele>
        <time>2018-08-05T07:05:34.000Z</time>
      </trkpt>
      <trkpt lat="41.61042" lon="60.31206">
        <ele>91.5</ele>
        <time>2018-08-05T07:06:35.000Z</time>
      </trkpt>
      <trkpt lat="41.60855" lon="60.31426">
        <ele>91.6</ele>
        <time>2018-08-05T07:07:36.000Z</time>
      </trkpt>
      <trkpt lat="41.60669" lon="60.31645">
        <ele>92.2</ele>
        <time>2018-08-05T07:08:37.000Z</time>
      </trkpt>
      <trkpt lat="41.60482" lon="60.31866">
        <ele>92.7</ele>
        <time>2018-08-05T07:09:38.000Z</time>
      </trkpt>
      <trkpt lat="41.60293" lon="60.32086">
        <ele>93.2</ele>
        <time>2018-08-05T07:10:39.000Z</time>
      </trkpt>
      <trkpt lat="41.60107" lon="60.32302">
        <ele>92.4</ele>
        <time>2018-08-05T07:11:40.000Z</time>
      </trkpt>
      <trkpt lat="41.59939" lon="60.32495">
        <ele>93.9</ele>
        <time>2018-08-05T07:12:41.000Z</time>
      </trkpt>
      <trkpt lat="41.59764" lon="60.32703">
        <ele>93.6</ele>
        <time>2018-08-05T07:13:42.000Z</time>
      </trkpt>
      <trkpt lat="41.59575" lon="60.32921">
        <ele>93.7</ele>
        <time>2018-08-05T07:14:43.000Z</time>
      </trkpt>
      <trkpt lat="41.59474" lon="60.33042">
        <ele>91</ele>
        <time>2018-08-05T07:19:14.000Z</time>
      </trkpt>
      <trkpt lat="41.59293" lon="60.33255">
        <ele>90.8</ele>
        <time>2018-08-05T07:20:15.000Z</time>
      </trkpt>
      <trkpt lat="41.5912" lon="60.33456">
        <ele>91.4</ele>
        <time>2018-08-05T07:21:16.000Z</time>
      </trkpt>
      <trkpt lat="41.58926" lon="60.33674">
        <ele>91.1</ele>
        <time>2018-08-05T07:22:17.000Z</time>
      </trkpt>
      <trkpt lat="41.58709" lon="60.33832">
        <ele>90.4</ele>
        <time>2018-08-05T07:23:18.000Z</time>
      </trkpt>
      <trkpt lat="41.58504" lon="60.33911">
        <ele>88.8</ele>
        <time>2018-08-05T07:24:19.000Z</time>
      </trkpt>
      <trkpt lat="41.58366" lon="60.33919">
        <ele>88.5</ele>
        <time>2018-08-05T07:25:53.000Z</time>
      </trkpt>
      <trkpt lat="41.58109" lon="60.33962">
        <ele>87.9</ele>
        <time>2018-08-05T07:26:54.000Z</time>
      </trkpt>
      <trkpt lat="41.57876" lon="60.34002">
        <ele>89.5</ele>
        <time>2018-08-05T07:27:55.000Z</time>
      </trkpt>
      <trkpt lat="41.57624" lon="60.34044">
        <ele>89.9</ele>
        <time>2018-08-05T07:28:56.000Z</time>
      </trkpt>
      <trkpt lat="41.57388" lon="60.34085">
        <ele>89.2</ele>
        <time>2018-08-05T07:29:57.000Z</time>
      </trkpt>
      <trkpt lat="41.57136" lon="60.34125">
        <ele>89.2</ele>
        <time>2018-08-05T07:30:58.000Z</time>
      </trkpt>
      <trkpt lat="41.56888" lon="60.34165">
        <ele>87.8</ele>
        <time>2018-08-05T07:31:59.000Z</time>
      </trkpt>
      <trkpt lat="41.56674" lon="60.34203">
        <ele>89.5</ele>
        <time>2018-08-05T07:33:00.000Z</time>
      </trkpt>
      <trkpt lat="41.56427" lon="60.34242">
        <ele>88.2</ele>
        <time>2018-08-05T07:34:01.000Z</time>
      </trkpt>
      <trkpt lat="41.5629" lon="60.34266">
        <ele>88.6</ele>
        <time>2018-08-05T07:35:52.000Z</time>
      </trkpt>
      <trkpt lat="41.56054" lon="60.34298">
        <ele>88.7</ele>
        <time>2018-08-05T07:36:53.000Z</time>
      </trkpt>
      <trkpt lat="41.55791" lon="60.34262">
        <ele>90.3</ele>
        <time>2018-08-05T07:37:54.000Z</time>
      </trkpt>
      <trkpt lat="41.55503" lon="60.34209">
        <ele>90.8</ele>
        <time>2018-08-05T07:38:55.000Z</time>
      </trkpt>
      <trkpt lat="41.55205" lon="60.34155">
        <ele>87.8</ele>
        <time>2018-08-05T07:39:56.000Z</time>
      </trkpt>
      <trkpt lat="41.54915" lon="60.34109">
        <ele>89.5</ele>
        <time>2018-08-05T07:40:57.000Z</time>
      </trkpt>
      <trkpt lat="41.54651" lon="60.34062">
        <ele>89.1</ele>
        <time>2018-08-05T07:41:58.000Z</time>
      </trkpt>
      <trkpt lat="41.5438" lon="60.34013">
        <ele>88.5</ele>
        <time>2018-08-05T07:42:59.000Z</time>
      </trkpt>
      <trkpt lat="41.54118" lon="60.34002">
        <ele>91.3</ele>
        <time>2018-08-05T07:44:00.000Z</time>
      </trkpt>
      <trkpt lat="41.53863" lon="60.33973">
        <ele>90.7</ele>
        <time>2018-08-05T07:45:01.000Z</time>
      </trkpt>
      <trkpt lat="41.5356" lon="60.33893">
        <ele>90.4</ele>
        <time>2018-08-05T07:46:02.000Z</time>
      </trkpt>
      <trkpt lat="41.53352" lon="60.33931">
        <ele>90.1</ele>
        <time>2018-08-05T07:47:02.000Z</time>
      </trkpt>
      <trkpt lat="41.53341" lon="60.3411">
        <ele>89.1</ele>
        <time>2018-08-05T07:50:44.000Z</time>
      </trkpt>
      <trkpt lat="41.53323" lon="60.34351">
        <ele>88.7</ele>
        <time>2018-08-05T07:51:45.000Z</time>
      </trkpt>
      <trkpt lat="41.53302" lon="60.34616">
        <ele>85.3</ele>
        <time>2018-08-05T07:52:46.000Z</time>
      </trkpt>
      <trkpt lat="41.53281" lon="60.34951">
        <ele>83.7</ele>
        <time>2018-08-05T07:53:47.000Z</time>
      </trkpt>
      <trkpt lat="41.53264" lon="60.35131">
        <ele>89</ele>
        <time>2018-08-05T07:57:58.000Z</time>
      </trkpt>
      <trkpt lat="41.53248" lon="60.35312">
        <ele>85.2</ele>
        <time>2018-08-05T07:59:44.000Z</time>
      </trkpt>
      <trkpt lat="41.5323" lon="60.35134">
        <ele>79.6</ele>
        <time>2018-08-05T08:05:27.000Z</time>
      </trkpt>
      <trkpt lat="41.53092" lon="60.35132">
        <ele>96.2</ele>
        <time>2018-08-05T09:21:50.000Z</time>
      </trkpt>
      <trkpt lat="41.52857" lon="60.35122">
        <ele>93.6</ele>
        <time>2018-08-05T09:22:51.000Z</time>
      </trkpt>
      <trkpt lat="41.52605" lon="60.35115">
        <ele>92.4</ele>
        <time>2018-08-05T09:23:52.000Z</time>
      </trkpt>
      <trkpt lat="41.52478" lon="60.35178">
        <ele>90.9</ele>
        <time>2018-08-05T09:26:52.000Z</time>
      </trkpt>
      <trkpt lat="41.52344" lon="60.35146">
        <ele>95.1</ele>
        <time>2018-08-05T11:10:26.000Z</time>
      </trkpt>
      <trkpt lat="41.52084" lon="60.35199">
        <ele>94.6</ele>
        <time>2018-08-05T11:11:27.000Z</time>
      </trkpt>
      <trkpt lat="41.51809" lon="60.35282">
        <ele>91.9</ele>
        <time>2018-08-05T11:12:28.000Z</time>
      </trkpt>
      <trkpt lat="41.51507" lon="60.35384">
        <ele>90.5</ele>
        <time>2018-08-05T11:13:29.000Z</time>
      </trkpt>
      <trkpt lat="41.51204" lon="60.35485">
        <ele>90.5</ele>
        <time>2018-08-05T11:14:30.000Z</time>
      </trkpt>
      <trkpt lat="41.50922" lon="60.35578">
        <ele>91.5</ele>
        <time>2018-08-05T11:15:31.000Z</time>
      </trkpt>
      <trkpt lat="41.50608" lon="60.35687">
        <ele>91.6</ele>
        <time>2018-08-05T11:16:32.000Z</time>
      </trkpt>
      <trkpt lat="41.50311" lon="60.35789">
        <ele>91</ele>
        <time>2018-08-05T11:17:33.000Z</time>
      </trkpt>
      <trkpt lat="41.50025" lon="60.35885">
        <ele>92.8</ele>
        <time>2018-08-05T11:18:34.000Z</time>
      </trkpt>
      <trkpt lat="41.49704" lon="60.35989">
        <ele>91.3</ele>
        <time>2018-08-05T11:19:35.000Z</time>
      </trkpt>
      <trkpt lat="41.49367" lon="60.36073">
        <ele>93</ele>
        <time>2018-08-05T11:20:36.000Z</time>
      </trkpt>
      <trkpt lat="41.49075" lon="60.36172">
        <ele>92.8</ele>
        <time>2018-08-05T11:21:36.000Z</time>
      </trkpt>
      <trkpt lat="41.4879" lon="60.36275">
        <ele>92.5</ele>
        <time>2018-08-05T11:22:37.000Z</time>
      </trkpt>
      <trkpt lat="41.48492" lon="60.36381">
        <ele>93.4</ele>
        <time>2018-08-05T11:23:38.000Z</time>
      </trkpt>
      <trkpt lat="41.48214" lon="60.365">
        <ele>94.3</ele>
        <time>2018-08-05T11:24:39.000Z</time>
      </trkpt>
      <trkpt lat="41.47927" lon="60.36629">
        <ele>92.5</ele>
        <time>2018-08-05T11:25:40.000Z</time>
      </trkpt>
      <trkpt lat="41.47642" lon="60.36754">
        <ele>93.5</ele>
        <time>2018-08-05T11:26:41.000Z</time>
      </trkpt>
      <trkpt lat="41.47351" lon="60.36889">
        <ele>92.6</ele>
        <time>2018-08-05T11:27:42.000Z</time>
      </trkpt>
      <trkpt lat="41.47051" lon="60.37041">
        <ele>91.4</ele>
        <time>2018-08-05T11:28:43.000Z</time>
      </trkpt>
      <trkpt lat="41.46762" lon="60.36915">
        <ele>92.4</ele>
        <time>2018-08-05T11:29:44.000Z</time>
      </trkpt>
      <trkpt lat="41.4646" lon="60.36827">
        <ele>94.2</ele>
        <time>2018-08-05T11:30:45.000Z</time>
      </trkpt>
      <trkpt lat="41.46132" lon="60.36759">
        <ele>94.3</ele>
        <time>2018-08-05T11:31:46.000Z</time>
      </trkpt>
      <trkpt lat="41.45795" lon="60.36689">
        <ele>94.6</ele>
        <time>2018-08-05T11:32:47.000Z</time>
      </trkpt>
      <trkpt lat="41.4546" lon="60.36621">
        <ele>91</ele>
        <time>2018-08-05T11:33:48.000Z</time>
      </trkpt>
      <trkpt lat="41.45131" lon="60.36555">
        <ele>90.9</ele>
        <time>2018-08-05T11:34:49.000Z</time>
      </trkpt>
      <trkpt lat="41.44822" lon="60.36535">
        <ele>90.9</ele>
        <time>2018-08-05T11:35:50.000Z</time>
      </trkpt>
      <trkpt lat="41.44549" lon="60.36429">
        <ele>90.6</ele>
        <time>2018-08-05T11:36:51.000Z</time>
      </trkpt>
      <trkpt lat="41.44253" lon="60.36298">
        <ele>92.5</ele>
        <time>2018-08-05T11:37:52.000Z</time>
      </trkpt>
      <trkpt lat="41.43917" lon="60.36208">
        <ele>90.4</ele>
        <time>2018-08-05T11:38:53.000Z</time>
      </trkpt>
      <trkpt lat="41.4365" lon="60.36187">
        <ele>90.6</ele>
        <time>2018-08-05T11:39:54.000Z</time>
      </trkpt>
      <trkpt lat="41.43362" lon="60.36155">
        <ele>91.4</ele>
        <time>2018-08-05T11:40:55.000Z</time>
      </trkpt>
      <trkpt lat="41.43225" lon="60.36146">
        <ele>93.1</ele>
        <time>2018-08-05T11:45:38.000Z</time>
      </trkpt>
      <trkpt lat="41.43028" lon="60.36129">
        <ele>93.2</ele>
        <time>2018-08-05T11:46:39.000Z</time>
      </trkpt>
      <trkpt lat="41.42748" lon="60.36104">
        <ele>93.3</ele>
        <time>2018-08-05T11:47:40.000Z</time>
      </trkpt>
      <trkpt lat="41.42439" lon="60.36079">
        <ele>92.7</ele>
        <time>2018-08-05T11:48:41.000Z</time>
      </trkpt>
      <trkpt lat="41.42122" lon="60.36051">
        <ele>93.6</ele>
        <time>2018-08-05T11:49:42.000Z</time>
      </trkpt>
      <trkpt lat="41.41793" lon="60.36025">
        <ele>94.1</ele>
        <time>2018-08-05T11:50:43.000Z</time>
      </trkpt>
      <trkpt lat="41.41486" lon="60.35999">
        <ele>96.4</ele>
        <time>2018-08-05T11:51:44.000Z</time>
      </trkpt>
      <trkpt lat="41.41188" lon="60.35973">
        <ele>96.5</ele>
        <time>2018-08-05T11:52:45.000Z</time>
      </trkpt>
      <trkpt lat="41.40858" lon="60.35948">
        <ele>96.1</ele>
        <time>2018-08-05T11:53:46.000Z</time>
      </trkpt>
      <trkpt lat="41.40542" lon="60.35918">
        <ele>95.9</ele>
        <time>2018-08-05T11:54:47.000Z</time>
      </trkpt>
      <trkpt lat="41.40274" lon="60.35897">
        <ele>96.3</ele>
        <time>2018-08-05T11:55:48.000Z</time>
      </trkpt>
      <trkpt lat="41.40016" lon="60.35888">
        <ele>94.6</ele>
        <time>2018-08-05T11:56:49.000Z</time>
      </trkpt>
      <trkpt lat="41.39763" lon="60.35971">
        <ele>95.3</ele>
        <time>2018-08-05T11:57:50.000Z</time>
      </trkpt>
      <trkpt lat="41.39611" lon="60.36252">
        <ele>92.2</ele>
        <time>2018-08-05T11:58:51.000Z</time>
      </trkpt>
      <trkpt lat="41.3953" lon="60.36482">
        <ele>93.7</ele>
        <time>2018-08-05T11:59:51.000Z</time>
      </trkpt>
      <trkpt lat="41.39399" lon="60.36531">
        <ele>94.6</ele>
        <time>2018-08-05T12:01:01.000Z</time>
      </trkpt>
      <trkpt lat="41.39063" lon="60.36408">
        <ele>93.5</ele>
        <time>2018-08-05T12:02:02.000Z</time>
      </trkpt>
      <trkpt lat="41.38824" lon="60.36354">
        <ele>92.9</ele>
        <time>2018-08-05T12:03:03.000Z</time>
      </trkpt>
      <trkpt lat="41.38543" lon="60.36326">
        <ele>97.6</ele>
        <time>2018-08-05T12:04:04.000Z</time>
      </trkpt>
      <trkpt lat="41.38315" lon="60.36445">
        <ele>96.1</ele>
        <time>2018-08-05T12:05:05.000Z</time>
      </trkpt>
      <trkpt lat="41.38222" lon="60.36578">
        <ele>92.9</ele>
        <time>2018-08-05T12:06:06.000Z</time>
      </trkpt>
      <trkpt lat="41.38097" lon="60.36502">
        <ele>91.6</ele>
        <time>2018-08-05T12:07:32.000Z</time>
      </trkpt>
      <trkpt lat="41.38107" lon="60.36323">
        <ele>94.7</ele>
        <time>2018-08-05T12:08:34.000Z</time>
      </trkpt>
      <trkpt lat="41.38169" lon="60.36126">
        <ele>93.1</ele>
        <time>2018-08-05T12:09:35.000Z</time>
      </trkpt>
      <trkpt lat="41.38037" lon="60.36092">
        <ele>98.1</ele>
        <time>2018-08-05T12:12:06.000Z</time>
      </trkpt>
      <trkpt lat="41.37903" lon="60.36057">
        <ele>103.6</ele>
        <time>2018-08-05T12:13:15.000Z</time>
      </trkpt>
      <trkpt lat="41.37796" lon="60.35949">
        <ele>95.1</ele>
        <time>2018-08-05T12:18:09.000Z</time>
      </trkpt>
      <trkpt lat="41.37671" lon="60.35875">
        <ele>94.4</ele>
        <time>2018-08-05T12:23:43.000Z</time>
      </trkpt>
      <trkpt lat="41.37697" lon="60.36052">
        <ele>97.4</ele>
        <time>2018-08-05T12:27:20.000Z</time>
      </trkpt>
    </trkseg>
  </trk>
</gpx>